Time;durP1;ratioP1;P1;durP2;ratioP2;P2;SDS_P1;SDS_P2;PMS_P1;PMS_P2;Temp;Humidity;BMP_temperature;BMP_pressure;BME280_temperature;BME280_humidity;BME280_pressure;Samples;Min_cycle;Max_cycle;Signal;HPM_P1;HPM_P2
2023/01/31 04:02:06;;;;;;;2.10;0.77;;;13.10;47.80;;;;;;5147455;23;45280;-66
2023/01/31 04:04:42;;;;;;;1.20;0.90;;;13.00;47.70;;;;;;4871359;28;45197;-63
2023/01/31 04:07:08;;;;;;;0.90;0.60;;;13.00;47.70;;;;;;4877583;28;45310;-61
2023/01/31 04:09:34;;;;;;;1.38;0.93;;;13.00;47.80;;;;;;4881074;28;45642;-62
2023/01/31 04:12:00;;;;;;;0.95;0.63;;;13.00;48.40;;;;;;4886805;28;45264;-67
2023/01/31 04:14:26;;;;;;;0.88;0.60;;;13.00;47.80;;;;;;4893990;28;44950;-63
2023/01/31 04:16:52;;;;;;;1.55;0.80;;;13.00;47.80;;;;;;4894816;28;45091;-65
2023/01/31 04:19:17;;;;;;;0.75;0.60;;;13.00;47.80;;;;;;4908864;28;46629;-63
2023/01/31 04:21:43;;;;;;;1.20;0.88;;;13.00;47.80;;;;;;4906990;28;45770;-67
2023/01/31 04:24:08;;;;;;;1.10;0.68;;;13.00;47.80;;;;;;4908321;28;45916;-65
2023/01/31 04:26:34;;;;;;;0.73;0.55;;;13.00;47.80;;;;;;4908350;28;46150;-62
2023/01/31 04:29:00;;;;;;;1.25;0.75;;;12.90;47.70;;;;;;4892002;28;46039;-63
2023/01/31 04:31:26;;;;;;;1.25;0.80;;;12.90;47.70;;;;;;4894856;28;44762;-63
2023/01/31 04:33:51;;;;;;;0.93;0.65;;;12.90;47.70;;;;;;4910104;28;44695;-65
2023/01/31 04:36:17;;;;;;;1.05;0.63;;;13.00;47.80;;;;;;4912806;28;44774;-64
2023/01/31 04:38:42;;;;;;;1.35;0.80;;;13.00;47.70;;;;;;4897472;28;45268;-63
2023/01/31 04:41:08;;;;;;;0.93;0.60;;;12.90;47.70;;;;;;4904239;28;44932;-61
2023/01/31 04:43:33;;;;;;;0.70;0.70;;;12.90;47.70;;;;;;4897364;28;45370;-63
2023/01/31 04:45:59;;;;;;;1.08;0.75;;;12.90;47.70;;;;;;4905043;28;45626;-64
2023/01/31 04:48:24;;;;;;;0.65;0.60;;;12.90;47.80;;;;;;4909841;28;45376;-63
2023/01/31 04:50:50;;;;;;;1.15;0.60;;;12.90;47.80;;;;;;4907560;28;45278;-63
2023/01/31 04:53:15;;;;;;;1.10;0.77;;;12.90;47.80;;;;;;4895255;28;45389;-62
2023/01/31 04:55:41;;;;;;;1.92;1.00;;;12.90;47.80;;;;;;4900398;28;45605;-62
2023/01/31 04:58:07;;;;;;;1.60;0.82;;;12.90;47.80;;;;;;4910368;28;46871;-63
2023/01/31 05:00:32;;;;;;;0.75;0.70;;;12.90;47.70;;;;;;4895346;28;44680;-66
2023/01/31 05:02:58;;;;;;;0.63;0.50;;;12.80;47.80;;;;;;4909123;28;45418;-63
2023/01/31 05:05:23;;;;;;;1.45;0.68;;;12.80;47.80;;;;;;4912175;28;46056;-62
2023/01/31 05:07:49;;;;;;;0.70;0.70;;;12.80;47.80;;;;;;4910489;28;45409;-62
2023/01/31 05:10:15;;;;;;;1.42;0.88;;;12.80;47.80;;;;;;4896578;28;45871;-64
2023/01/31 05:12:40;;;;;;;1.02;0.70;;;12.80;48.40;;;;;;4906532;28;45104;-66
2023/01/31 05:15:06;;;;;;;0.85;0.70;;;12.80;47.80;;;;;;4904800;28;45563;-65
2023/01/31 05:17:32;;;;;;;0.85;0.70;;;12.80;47.80;;;;;;4915550;28;45137;-63
2023/01/31 05:19:58;;;;;;;0.85;0.68;;;12.80;47.80;;;;;;4890548;28;44720;-63
2023/01/31 05:22:24;;;;;;;1.15;0.80;;;12.80;47.80;;;;;;4880891;28;46185;-65
2023/01/31 05:24:50;;;;;;;1.00;0.90;;;12.70;47.80;;;;;;4896922;28;49807;-63
2023/01/31 05:27:16;;;;;;;1.60;0.73;;;12.70;47.80;;;;;;4908413;28;45223;-63
2023/01/31 05:29:41;;;;;;;1.05;0.70;;;12.70;47.80;;;;;;4914180;28;44812;-63
2023/01/31 05:32:07;;;;;;;0.90;0.70;;;12.70;47.80;;;;;;4876096;28;44712;-63
2023/01/31 05:34:33;;;;;;;0.93;0.68;;;12.70;47.80;;;;;;4914668;28;45465;-64
2023/01/31 05:36:59;;;;;;;1.13;0.70;;;12.70;47.90;;;;;;4896564;28;45596;-63
2023/01/31 05:39:25;;;;;;;0.77;0.73;;;12.70;47.90;;;;;;4883992;28;45469;-62
2023/01/31 05:41:51;;;;;;;0.90;0.70;;;12.70;47.90;;;;;;4880476;28;45066;-63
2023/01/31 05:44:17;;;;;;;1.00;0.77;;;12.70;47.80;;;;;;4914062;28;45033;-64
2023/01/31 05:46:43;;;;;;;1.00;0.60;;;12.70;47.90;;;;;;4918624;28;46240;-62
2023/01/31 05:49:09;;;;;;;0.80;0.60;;;12.70;47.80;;;;;;4893496;28;45406;-65
2023/01/31 05:51:34;;;;;;;1.10;0.73;;;12.70;47.90;;;;;;4885190;28;45431;-64
2023/01/31 05:54:00;;;;;;;0.75;0.70;;;12.70;47.90;;;;;;4913279;28;45723;-64
2023/01/31 05:56:26;;;;;;;1.60;0.80;;;12.60;47.90;;;;;;4897234;28;45503;-63
2023/01/31 05:58:51;;;;;;;0.98;0.73;;;12.60;47.90;;;;;;4883355;28;45374;-65
2023/01/31 06:01:18;;;;;;;1.02;0.60;;;12.60;47.90;;;;;;4909552;28;44987;-61
2023/01/31 06:03:43;;;;;;;1.42;0.82;;;12.60;47.90;;;;;;4913327;28;44859;-64
2023/01/31 06:06:09;;;;;;;1.80;0.75;;;12.60;47.90;;;;;;4912497;28;45841;-63
2023/01/31 06:08:34;;;;;;;1.05;0.80;;;12.60;47.90;;;;;;4912918;28;45224;-61
2023/01/31 06:11:01;;;;;;;0.80;0.80;;;12.60;47.90;;;;;;4911839;28;46265;-64
2023/01/31 06:13:27;;;;;;;2.22;0.93;;;12.60;47.90;;;;;;4891675;28;45560;-63
2023/01/31 06:15:52;;;;;;;2.00;0.88;;;12.60;47.90;;;;;;4915691;28;45902;-62
2023/01/31 06:18:19;;;;;;;1.38;0.70;;;12.60;47.90;;;;;;4912999;28;45612;-64
2023/01/31 06:20:45;;;;;;;0.80;0.63;;;12.60;47.90;;;;;;4896556;28;44975;-64
2023/01/31 06:23:10;;;;;;;0.68;0.65;;;12.60;47.90;;;;;;4906309;28;45336;-64
2023/01/31 06:25:36;;;;;;;1.00;0.80;;;12.60;47.90;;;;;;4906702;28;47688;-65
2023/01/31 06:28:03;;;;;;;1.52;0.80;;;12.60;47.90;;;;;;4895587;28;45017;-65
2023/01/31 06:30:36;;;;;;;1.33;0.90;;;12.60;48.00;;;;;;4885669;28;45411;-65
2023/01/31 06:33:01;;;;;;;0.90;0.70;;;12.50;48.00;;;;;;4893983;28;45264;-66
2023/01/31 06:35:27;;;;;;;1.02;0.60;;;12.50;47.80;;;;;;4899356;28;44859;-63
2023/01/31 06:37:54;;;;;;;2.42;0.82;;;12.50;47.80;;;;;;4906501;28;45461;-62
2023/01/31 06:40:19;;;;;;;1.08;0.68;;;12.50;47.90;;;;;;4892720;28;44820;-64
2023/01/31 06:42:45;;;;;;;1.20;0.60;;;12.50;47.90;;;;;;4912430;28;45510;-63
2023/01/31 06:45:10;;;;;;;0.98;0.73;;;12.50;47.90;;;;;;4916738;28;45334;-65
2023/01/31 06:47:36;;;;;;;0.95;0.60;;;12.50;47.90;;;;;;4912504;28;48333;-62
2023/01/31 06:50:01;;;;;;;0.85;0.68;;;12.50;47.80;;;;;;4901834;28;45252;-65
2023/01/31 06:52:27;;;;;;;1.50;0.90;;;12.50;47.90;;;;;;4914493;28;45251;-62
2023/01/31 06:54:52;;;;;;;0.75;0.70;;;12.50;47.90;;;;;;4909285;28;45412;-62
2023/01/31 06:57:18;;;;;;;1.65;1.08;;;12.50;47.90;;;;;;4900887;28;45562;-64
2023/01/31 06:59:43;;;;;;;0.77;0.55;;;12.50;48.00;;;;;;4913185;28;48259;-62
2023/01/31 07:02:10;;;;;;;1.08;0.88;;;12.50;48.00;;;;;;4904540;28;45205;-65
2023/01/31 07:04:36;;;;;;;1.48;0.60;;;12.50;47.90;;;;;;4899900;28;47426;-63
2023/01/31 07:07:01;;;;;;;1.52;0.70;;;12.50;47.90;;;;;;4883345;28;44764;-64
2023/01/31 07:09:27;;;;;;;0.93;0.70;;;12.50;48.00;;;;;;4907924;28;45359;-65
2023/01/31 07:11:52;;;;;;;1.08;0.70;;;12.50;47.90;;;;;;4895652;28;45252;-63
2023/01/31 07:14:18;;;;;;;0.73;0.63;;;12.50;47.90;;;;;;4914633;28;48711;-63
2023/01/31 07:16:43;;;;;;;1.60;0.70;;;12.40;48.00;;;;;;4906715;28;45262;-63
2023/01/31 07:19:09;;;;;;;0.98;0.60;;;12.40;47.90;;;;;;4896330;28;45319;-64
2023/01/31 07:21:35;;;;;;;0.70;0.68;;;12.40;48.00;;;;;;4912532;28;45345;-62
2023/01/31 07:24:01;;;;;;;0.68;0.68;;;12.40;48.00;;;;;;4895168;28;46085;-63
2023/01/31 07:26:27;;;;;;;1.10;0.70;;;12.40;48.00;;;;;;4910172;28;44990;-63
2023/01/31 07:28:52;;;;;;;0.85;0.70;;;12.40;48.00;;;;;;4910711;28;44744;-62
2023/01/31 07:31:19;;;;;;;0.52;0.50;;;12.40;48.00;;;;;;4908311;28;44959;-61
2023/01/31 07:33:44;;;;;;;1.15;0.70;;;12.40;48.00;;;;;;4913164;28;46315;-62
2023/01/31 07:36:12;;;;;;;1.13;0.68;;;12.40;48.00;;;;;;4898901;28;45003;-63
2023/01/31 07:38:38;;;;;;;1.02;0.65;;;12.50;48.00;;;;;;4872370;28;45567;-66
2023/01/31 07:41:03;;;;;;;1.33;0.90;;;12.60;47.90;;;;;;4912496;28;45399;-62
2023/01/31 07:43:30;;;;;;;1.50;0.80;;;12.80;47.70;;;;;;4883827;28;46187;-62
2023/01/31 07:45:55;;;;;;;1.85;0.70;;;12.90;47.40;;;;;;4917121;28;44640;-62
2023/01/31 07:48:24;;;;;;;0.85;0.77;;;13.10;47.20;;;;;;4913442;28;44667;-61
2023/01/31 07:50:52;;;;;;;0.90;0.77;;;13.40;47.10;;;;;;4897104;28;45356;-62
2023/01/31 07:53:17;;;;;;;0.60;0.50;;;13.50;46.80;;;;;;4914499;28;46348;-60
2023/01/31 07:55:46;;;;;;;0.85;0.70;;;13.60;46.60;;;;;;4901117;28;45748;-62
2023/01/31 07:58:13;;;;;;;1.42;0.70;;;13.80;46.50;;;;;;4916164;28;45684;-62
2023/01/31 08:03:33;;;;;;;1.08;0.57;;;14.20;46.20;;;;;;4896576;28;45799;-62
2023/01/31 08:06:06;;;;;;;0.73;0.55;;;14.30;46.10;;;;;;4912891;28;45271;-62
2023/01/31 08:08:31;;;;;;;0.82;0.68;;;14.50;45.90;;;;;;4890609;28;44974;-62
2023/01/31 08:10:57;;;;;;;1.25;0.50;;;14.60;45.80;;;;;;4886710;28;45208;-64
2023/01/31 08:13:25;;;;;;;1.20;0.70;;;14.80;45.60;;;;;;4917322;28;46365;-63
2023/01/31 08:15:51;;;;;;;0.80;0.73;;;15.00;45.50;;;;;;4916371;28;45294;-63
2023/01/31 08:18:17;;;;;;;1.00;0.50;;;15.10;45.40;;;;;;4909702;28;45291;-61
2023/01/31 08:20:43;;;;;;;0.60;0.50;;;15.30;45.30;;;;;;4898759;28;45343;-63
2023/01/31 08:23:08;;;;;;;0.43;0.40;;;15.40;45.10;;;;;;4914368;28;48397;-60
2023/01/31 08:25:35;;;;;;;0.57;0.57;;;15.60;45.00;;;;;;4908136;28;44971;-62
2023/01/31 08:28:00;;;;;;;1.85;0.80;;;15.70;45.00;;;;;;4915172;28;45733;-61
2023/01/31 08:30:26;;;;;;;0.68;0.45;;;15.90;44.90;;;;;;4912701;28;45328;-63
2023/01/31 08:32:52;;;;;;;1.08;0.70;;;16.00;44.70;;;;;;4915877;28;46015;-62
2023/01/31 08:35:18;;;;;;;0.40;0.40;;;16.10;44.60;;;;;;4915652;28;45418;-60
2023/01/31 08:37:43;;;;;;;0.60;0.50;;;16.10;44.60;;;;;;4904320;28;45235;-64
2023/01/31 08:40:09;;;;;;;0.70;0.50;;;16.10;44.70;;;;;;4915423;28;45307;-63
2023/01/31 08:42:35;;;;;;;1.35;0.50;;;16.20;44.80;;;;;;4913943;28;45797;-62
2023/01/31 08:45:00;;;;;;;0.57;0.40;;;16.30;44.70;;;;;;4918094;28;45220;-62
2023/01/31 08:47:26;;;;;;;0.93;0.60;;;16.50;44.70;;;;;;4914516;28;45057;-62
2023/01/31 08:49:51;;;;;;;1.92;0.45;;;16.60;44.50;;;;;;4917905;28;45397;-59
2023/01/31 08:52:17;;;;;;;0.57;0.45;;;16.70;44.30;;;;;;4900771;28;45769;-63
2023/01/31 08:54:42;;;;;;;1.08;0.60;;;16.90;44.30;;;;;;4919309;28;44718;-59
2023/01/31 08:57:08;;;;;;;0.60;0.40;;;17.00;44.10;;;;;;4917818;28;45455;-61
2023/01/31 08:59:34;;;;;;;0.35;0.35;;;17.10;44.10;;;;;;4895615;28;45289;-64
2023/01/31 09:01:59;;;;;;;0.38;0.38;;;17.20;43.90;;;;;;4889332;28;45130;-65
2023/01/31 09:04:25;;;;;;;1.27;0.50;;;17.40;43.80;;;;;;4902591;28;45102;-62
2023/01/31 09:06:50;;;;;;;0.80;0.50;;;17.50;43.60;;;;;;4915613;28;45020;-62
2023/01/31 09:09:16;;;;;;;0.93;0.50;;;17.60;43.50;;;;;;4912481;28;44807;-62
2023/01/31 09:11:41;;;;;;;1.42;0.63;;;17.80;43.50;;;;;;4910303;28;45372;-59
2023/01/31 09:14:07;;;;;;;0.57;0.47;;;17.90;43.40;;;;;;4917409;28;45326;-63
2023/01/31 09:16:32;;;;;;;1.30;0.50;;;18.00;43.20;;;;;;4914192;28;45215;-64
2023/01/31 09:18:58;;;;;;;0.65;0.30;;;18.20;43.30;;;;;;4914959;28;46229;-60
2023/01/31 09:21:24;;;;;;;1.55;0.55;;;18.30;43.20;;;;;;4916337;28;47267;-68
2023/01/31 09:23:54;;;;;;;0.90;0.65;;;18.40;43.10;;;;;;4901781;28;45391;-64
2023/01/31 09:26:19;;;;;;;0.68;0.45;;;18.50;42.90;;;;;;4902586;28;45589;-67
2023/01/31 09:28:45;;;;;;;0.82;0.60;;;18.60;43.00;;;;;;4901906;28;44797;-64
2023/01/31 09:31:12;;;;;;;0.55;0.50;;;18.70;42.80;;;;;;4913288;28;46109;-66
2023/01/31 09:33:38;;;;;;;0.80;0.35;;;18.80;42.70;;;;;;4897011;28;45384;-64
2023/01/31 09:36:08;;;;;;;0.60;0.40;;;18.90;42.70;;;;;;4902438;28;45299;-63
2023/01/31 09:38:34;;;;;;;2.58;0.40;;;19.00;42.50;;;;;;4905423;28;45287;-62
2023/01/31 09:41:05;;;;;;;1.25;0.40;;;19.10;42.60;;;;;;4895445;28;45455;-63
2023/01/31 09:43:39;;;;;;;0.45;0.40;;;19.20;42.40;;;;;;4901963;28;45130;-65
2023/01/31 09:46:05;;;;;;;0.38;0.38;;;19.30;42.30;;;;;;4887140;28;45237;-64
2023/01/31 09:48:34;;;;;;;0.40;0.40;;;19.40;42.40;;;;;;4895061;28;45331;-62
2023/01/31 09:50:59;;;;;;;0.70;0.50;;;19.60;42.30;;;;;;4896916;28;46084;-62
2023/01/31 09:53:29;;;;;;;0.50;0.43;;;19.60;42.20;;;;;;4888639;28;45096;-64
2023/01/31 09:56:17;;;;;;;1.25;0.60;;;19.70;42.00;;;;;;4918248;28;45472;-61
2023/01/31 09:59:20;;;;;;;0.68;0.40;;;19.70;42.10;;;;;;4895300;28;44922;-61
2023/01/31 10:01:59;;;;;;;0.38;0.35;;;19.70;41.90;;;;;;4912050;28;45274;-64
2023/01/31 10:04:43;;;;;;;0.40;0.40;;;19.60;42.40;;;;;;4893374;28;44725;-67
2023/01/31 10:07:16;;;;;;;1.42;0.50;;;19.70;42.00;;;;;;4916810;28;45005;-62
2023/01/31 10:10:16;;;;;;;0.50;0.30;;;19.80;42.10;;;;;;4884282;28;44802;-63
2023/01/31 10:12:50;;;;;;;0.55;0.40;;;20.00;41.70;;;;;;4866903;28;44953;-67
2023/01/31 10:15:24;;;;;;;0.40;0.38;;;20.10;42.10;;;;;;4903150;28;45074;-66
2023/01/31 10:17:57;;;;;;;0.52;0.38;;;20.20;41.90;;;;;;4885305;28;45177;-63
2023/01/31 10:20:38;;;;;;;0.40;0.40;;;20.30;41.90;;;;;;4911973;28;45224;-66
2023/01/31 10:23:49;;;;;;;0.90;0.30;;;20.40;41.60;;;;;;4913127;28;45966;-64
2023/01/31 10:26:20;;;;;;;0.68;0.50;;;20.50;41.20;;;;;;4873480;28;45310;-66
2023/01/31 10:29:02;;;;;;;0.65;0.30;;;20.50;41.50;;;;;;4899733;28;45052;-66
2023/01/31 10:31:51;;;;;;;1.42;0.30;;;20.70;41.30;;;;;;4912108;28;45976;-65
2023/01/31 10:34:25;;;;;;;0.30;0.30;;;20.70;41.00;;;;;;4898523;28;46573;-67
2023/01/31 10:36:58;;;;;;;0.60;0.45;;;20.80;41.30;;;;;;4900843;28;45137;-65
2023/01/31 10:39:36;;;;;;;0.77;0.40;;;21.00;41.10;;;;;;4900171;28;45439;-63
2023/01/31 10:42:17;;;;;;;0.68;0.40;;;21.00;41.20;;;;;;4885594;28;45268;-68
2023/01/31 10:45:06;;;;;;;1.13;0.30;;;21.10;40.90;;;;;;4885321;28;47198;-61
2023/01/31 10:47:46;;;;;;;0.32;0.20;;;21.20;40.70;;;;;;4913593;28;45385;-63
2023/01/31 10:50:23;;;;;;;1.08;0.40;;;21.30;41.00;;;;;;4910453;28;44988;-62
2023/01/31 10:53:12;;;;;;;0.70;0.50;;;21.40;40.90;;;;;;4899817;28;45998;-62
2023/01/31 10:55:57;;;;;;;1.30;0.30;;;21.50;40.60;;;;;;4913033;28;46181;-65
2023/01/31 10:58:23;;;;;;;0.40;0.30;;;21.50;40.50;;;;;;4893261;28;45057;-61
2023/01/31 11:00:49;;;;;;;0.32;0.30;;;21.60;40.90;;;;;;4879488;28;45228;-66
2023/01/31 11:03:14;;;;;;;0.77;0.40;;;21.70;40.80;;;;;;4893221;28;44993;-63
2023/01/31 11:05:55;;;;;;;0.30;0.30;;;21.70;40.70;;;;;;4899267;28;45184;-61
2023/01/31 11:08:41;;;;;;;0.40;0.25;;;21.80;41.20;;;;;;4882182;28;45216;-63
2023/01/31 11:11:09;;;;;;;0.60;0.30;;;21.80;40.50;;;;;;4895683;28;45027;-63
2023/01/31 11:13:34;;;;;;;0.17;0.17;;;21.90;40.50;;;;;;4912188;28;45303;-61
2023/01/31 11:16:00;;;;;;;0.73;0.40;;;21.90;40.50;;;;;;4915798;28;46385;-61
2023/01/31 11:18:32;;;;;;;0.30;0.30;;;22.00;40.60;;;;;;4893353;28;44797;-62
2023/01/31 11:20:58;;;;;;;1.27;0.50;;;22.00;40.60;;;;;;4896398;28;44801;-63
2023/01/31 11:23:25;;;;;;;0.32;0.30;;;22.00;40.70;;;;;;4894618;28;45453;-63
2023/01/31 11:25:51;;;;;;;0.63;0.30;;;22.10;40.70;;;;;;4897228;28;48310;-62
2023/01/31 11:28:37;;;;;;;0.35;0.35;;;22.10;40.80;;;;;;4895476;28;45379;-61
2023/01/31 11:31:30;;;;;;;0.93;0.30;;;22.10;40.30;;;;;;4881613;28;45694;-62
2023/01/31 11:34:00;;;;;;;0.40;0.30;;;22.10;40.30;;;;;;4911487;28;45217;-61
2023/01/31 11:36:25;;;;;;;0.75;0.30;;;22.10;40.60;;;;;;4895873;28;46121;-61
2023/01/31 11:38:52;;;;;;;0.30;0.30;;;22.10;40.70;;;;;;4900773;28;44656;-63
2023/01/31 11:41:39;;;;;;;0.47;0.38;;;22.20;40.70;;;;;;4909375;28;45436;-62
2023/01/31 11:44:10;;;;;;;0.47;0.32;;;22.20;40.10;;;;;;4886529;28;45144;-62
2023/01/31 11:46:43;;;;;;;0.35;0.30;;;22.20;40.40;;;;;;4898156;28;45662;-60
2023/01/31 11:49:29;;;;;;;0.30;0.30;;;22.30;40.50;;;;;;4909707;28;45673;-64
2023/01/31 11:51:59;;;;;;;0.40;0.40;;;22.30;40.30;;;;;;4880095;28;45496;-62
2023/01/31 11:54:27;;;;;;;0.38;0.30;;;22.30;40.60;;;;;;4896620;28;44966;-65
2023/01/31 11:56:54;;;;;;;0.25;0.20;;;22.40;40.50;;;;;;4897086;28;45521;-63
2023/01/31 11:59:21;;;;;;;1.02;0.40;;;22.40;40.60;;;;;;4912666;28;45434;-64
2023/01/31 12:01:52;;;;;;;0.40;0.30;;;22.40;40.50;;;;;;4895218;28;45327;-66
2023/01/31 12:04:24;;;;;;;0.65;0.30;;;22.50;40.40;;;;;;4910565;28;44744;-59
2023/01/31 12:07:04;;;;;;;1.27;0.47;;;22.50;40.40;;;;;;4867732;28;47181;-64
2023/01/31 12:09:40;;;;;;;0.32;0.30;;;22.60;40.30;;;;;;4914328;28;45343;-63
2023/01/31 12:12:33;;;;;;;0.30;0.30;;;22.60;40.20;;;;;;4911992;28;45763;-61
2023/01/31 12:15:03;;;;;;;0.30;0.30;;;22.60;40.00;;;;;;4887356;28;45296;-65
2023/01/31 12:17:30;;;;;;;0.30;0.30;;;22.70;40.40;;;;;;4897283;28;46083;-64
2023/01/31 12:20:22;;;;;;;0.30;0.30;;;22.70;40.30;;;;;;4899214;28;45296;-61
2023/01/31 12:22:57;;;;;;;0.82;0.30;;;22.80;40.00;;;;;;4895420;28;44768;-65
2023/01/31 12:25:41;;;;;;;0.57;0.45;;;22.70;40.20;;;;;;4911845;28;45527;-62
2023/01/31 12:28:35;;;;;;;0.82;0.30;;;22.60;40.20;;;;;;4913804;28;46229;-63
2023/01/31 12:31:19;;;;;;;;;;;22.60;40.40;;;;;;4883925;28;45433;-61
2023/01/31 12:34:10;;;;;;;0.52;0.30;;;22.50;40.30;;;;;;4909478;28;45459;-65
2023/01/31 12:36:44;;;;;;;0.90;0.50;;;22.60;40.50;;;;;;4896351;28;46412;-64
2023/01/31 12:39:11;;;;;;;0.40;0.30;;;22.70;40.50;;;;;;4897980;28;45751;-65
2023/01/31 12:42:13;;;;;;;0.60;0.30;;;22.70;40.50;;;;;;4910225;28;45888;-64
2023/01/31 12:44:49;;;;;;;0.50;0.40;;;22.80;40.10;;;;;;4877868;28;45131;-64
2023/01/31 12:47:36;;;;;;;0.90;0.40;;;22.80;40.40;;;;;;4879838;28;46108;-63
2023/01/31 12:50:20;;;;;;;0.20;0.20;;;22.80;40.40;;;;;;4894658;28;46106;-61
2023/01/31 12:53:08;;;;;;;2.22;0.50;;;22.90;40.30;;;;;;4909786;28;45267;-62
2023/01/31 12:55:53;;;;;;;0.40;0.30;;;22.90;40.20;;;;;;4913632;28;45587;-66
2023/01/31 12:58:44;;;;;;;2.05;0.30;;;23.00;40.40;;;;;;4904935;28;45366;-65
2023/01/31 13:01:15;;;;;;;0.32;0.32;;;23.00;40.30;;;;;;4881023;28;45200;-64
2023/01/31 13:03:59;;;;;;;1.15;0.35;;;23.10;40.50;;;;;;4882711;28;45198;-62
2023/01/31 13:06:35;;;;;;;0.28;0.28;;;23.10;40.30;;;;;;4886230;28;44747;-64
2023/01/31 13:09:07;;;;;;;0.95;0.50;;;23.10;40.30;;;;;;4902215;28;44807;-60
2023/01/31 13:11:46;;;;;;;0.50;0.20;;;23.20;40.40;;;;;;4896742;28;46124;-65
2023/01/31 13:14:14;;;;;;;0.95;0.40;;;23.20;40.30;;;;;;4899845;28;45248;-65
2023/01/31 13:16:42;;;;;;;0.40;0.30;;;23.20;40.30;;;;;;4884760;28;45618;-65
2023/01/31 13:19:30;;;;;;;0.30;0.30;;;23.30;40.30;;;;;;4897426;28;44831;-64
2023/01/31 13:21:57;;;;;;;0.80;0.57;;;23.30;40.10;;;;;;4881162;28;46428;-63
2023/01/31 13:24:31;;;;;;;0.30;0.30;;;23.30;40.30;;;;;;4900847;28;45210;-60
2023/01/31 13:27:19;;;;;;;0.35;0.30;;;23.40;40.30;;;;;;4899324;28;45505;-65
2023/01/31 13:29:52;;;;;;;0.55;0.35;;;23.40;40.30;;;;;;4902340;28;45373;-63
2023/01/31 13:32:27;;;;;;;0.30;0.30;;;23.50;40.20;;;;;;4901684;28;46016;-61
2023/01/31 13:35:03;;;;;;;0.15;0.15;;;23.50;40.10;;;;;;4902603;28;45241;-63
2023/01/31 13:37:30;;;;;;;0.75;0.30;;;23.50;40.20;;;;;;4913751;28;48216;-63
2023/01/31 13:40:02;;;;;;;1.23;0.50;;;23.60;40.30;;;;;;4897266;28;45186;-61
2023/01/31 13:42:28;;;;;;;0.75;0.40;;;23.60;40.20;;;;;;4892727;28;46162;-63
2023/01/31 13:44:53;;;;;;;1.65;0.40;;;23.60;40.20;;;;;;4884186;28;45270;-65
2023/01/31 13:47:29;;;;;;;0.40;0.35;;;23.70;40.30;;;;;;4902729;28;44876;-64
2023/01/31 13:50:02;;;;;;;0.52;0.38;;;23.70;40.10;;;;;;4896947;28;45310;-63
2023/01/31 13:52:38;;;;;;;1.10;0.40;;;23.70;40.00;;;;;;4912128;28;45961;-65
2023/01/31 13:55:09;;;;;;;0.82;0.57;;;23.70;40.20;;;;;;4898748;28;45270;-64
2023/01/31 13:57:44;;;;;;;0.20;0.20;;;23.70;40.20;;;;;;4901150;28;45537;-63
2023/01/31 14:00:36;;;;;;;0.47;0.35;;;23.70;40.30;;;;;;4900698;28;45318;-64
2023/01/31 14:03:04;;;;;;;0.80;0.50;;;23.70;40.10;;;;;;4905271;28;46101;-61
2023/01/31 14:05:42;;;;;;;0.75;0.30;;;23.70;40.40;;;;;;4888285;28;45550;-62
2023/01/31 14:08:27;;;;;;;0.50;0.30;;;23.70;40.20;;;;;;4911136;28;45362;-66
2023/01/31 14:10:56;;;;;;;0.43;0.30;;;23.70;40.20;;;;;;4912437;28;45798;-63
2023/01/31 14:13:34;;;;;;;0.50;0.28;;;23.70;40.40;;;;;;4913258;28;47021;-65
2023/01/31 14:16:00;;;;;;;0.73;0.40;;;23.70;40.40;;;;;;4898341;28;45806;-64
2023/01/31 14:18:39;;;;;;;0.88;0.40;;;23.70;40.50;;;;;;4895970;28;44872;-63
2023/01/31 14:21:29;;;;;;;0.25;0.25;;;23.70;40.90;;;;;;4897778;28;45304;-61
2023/01/31 14:24:02;;;;;;;0.40;0.30;;;23.70;40.20;;;;;;4914641;28;46222;-65
2023/01/31 14:26:35;;;;;;;;;;;23.70;40.40;;;;;;4901007;28;44657;-63
2023/01/31 14:29:07;;;;;;;0.22;0.22;;;23.70;40.20;;;;;;4897638;28;45316;-62
2023/01/31 14:31:33;;;;;;;0.65;0.43;;;23.70;40.40;;;;;;4879199;28;45552;-64
2023/01/31 14:33:58;;;;;;;0.30;0.30;;;23.70;40.50;;;;;;4888283;28;46981;-64
2023/01/31 14:36:49;;;;;;;0.45;0.30;;;23.70;40.50;;;;;;4893775;28;45304;-63
2023/01/31 14:39:37;;;;;;;1.27;0.38;;;23.70;40.30;;;;;;4900098;28;45098;-62
2023/01/31 14:42:21;;;;;;;0.70;0.38;;;23.70;40.30;;;;;;4896115;28;45656;-65
2023/01/31 14:45:02;;;;;;;0.80;0.40;;;23.70;40.40;;;;;;4899865;28;46213;-63
2023/01/31 14:47:51;;;;;;;0.60;0.40;;;23.70;40.40;;;;;;4901497;28;45295;-61
2023/01/31 14:50:36;;;;;;;0.45;0.30;;;23.80;40.50;;;;;;4884020;28;45228;-64
2023/01/31 14:53:23;;;;;;;0.40;0.40;;;23.70;40.40;;;;;;4912186;28;45534;-61
2023/01/31 14:56:19;;;;;;;0.57;0.30;;;23.80;40.50;;;;;;4916821;28;45306;-63
2023/01/31 14:58:44;;;;;;;0.50;0.30;;;23.80;40.50;;;;;;4911342;28;45749;-64
2023/01/31 15:01:10;;;;;;;0.63;0.35;;;23.80;40.60;;;;;;4913769;28;45250;-62
2023/01/31 15:03:47;;;;;;;0.68;0.40;;;23.80;40.60;;;;;;4896567;28;45357;-62
2023/01/31 15:06:25;;;;;;;0.57;0.30;;;23.80;40.60;;;;;;4901557;28;46107;-65
2023/01/31 15:09:10;;;;;;;0.20;0.20;;;23.80;40.60;;;;;;4884020;28;44672;-61
2023/01/31 15:11:39;;;;;;;0.52;0.20;;;23.80;40.60;;;;;;4898182;28;45243;-63
2023/01/31 15:14:25;;;;;;;0.65;0.40;;;23.80;40.70;;;;;;4902168;28;45259;-61
2023/01/31 15:17:11;;;;;;;1.40;0.30;;;23.80;40.50;;;;;;4892569;28;46079;-61
2023/01/31 15:19:48;;;;;;;0.73;0.30;;;23.80;40.50;;;;;;4879300;28;45504;-62
2023/01/31 15:22:16;;;;;;;0.63;0.43;;;23.80;40.70;;;;;;4907321;28;45619;-63
2023/01/31 15:24:48;;;;;;;0.30;0.30;;;23.70;40.60;;;;;;4897364;28;45477;-61
2023/01/31 15:27:22;;;;;;;0.50;0.30;;;23.60;40.90;;;;;;4885236;28;46311;-61
2023/01/31 15:29:57;;;;;;;0.95;0.30;;;23.50;40.90;;;;;;4897277;28;45568;-66
2023/01/31 15:32:28;;;;;;;0.45;0.40;;;23.50;40.90;;;;;;4914299;28;45566;-64
2023/01/31 15:34:58;;;;;;;0.88;0.38;;;23.60;41.00;;;;;;4898719;28;45551;-63
2023/01/31 15:37:26;;;;;;;0.82;0.30;;;23.60;41.00;;;;;;4899364;28;47167;-61
2023/01/31 15:39:58;;;;;;;0.28;0.28;;;23.70;40.90;;;;;;4897028;28;45328;-60
2023/01/31 15:42:28;;;;;;;0.60;0.40;;;23.70;40.90;;;;;;4895079;28;45239;-62
2023/01/31 15:45:16;;;;;;;0.60;0.50;;;23.70;40.80;;;;;;4898039;28;45577;-63
2023/01/31 15:47:41;;;;;;;0.47;0.20;;;23.80;40.70;;;;;;4912770;28;45168;-62
2023/01/31 15:50:18;;;;;;;0.43;0.28;;;23.90;40.80;;;;;;4897765;28;44752;-63
2023/01/31 15:52:43;;;;;;;0.20;0.20;;;23.90;40.70;;;;;;4913435;28;44912;-64
2023/01/31 15:55:12;;;;;;;0.68;0.50;;;23.90;40.70;;;;;;4909717;28;46750;-66
2023/01/31 15:57:42;;;;;;;2.35;0.30;;;24.00;40.70;;;;;;4882739;28;46453;-65
2023/01/31 16:00:16;;;;;;;0.47;0.40;;;24.10;40.60;;;;;;4863967;28;45243;-69
2023/01/31 16:02:41;;;;;;;0.35;0.35;;;24.10;40.50;;;;;;4892488;28;44788;-67
2023/01/31 16:05:07;;;;;;;0.50;0.40;;;24.00;40.40;;;;;;4877574;28;44736;-66
2023/01/31 16:07:33;;;;;;;0.77;0.38;;;24.00;40.40;;;;;;4899829;28;47347;-66
2023/01/31 16:10:00;;;;;;;0.45;0.28;;;23.90;40.50;;;;;;4895839;28;45590;-64
2023/01/31 16:12:26;;;;;;;0.30;0.30;;;23.70;40.60;;;;;;4897408;28;44774;-66
2023/01/31 16:14:57;;;;;;;0.47;0.25;;;23.60;40.80;;;;;;4890271;28;45286;-67
2023/01/31 16:17:24;;;;;;;0.30;0.30;;;23.50;40.90;;;;;;4910863;28;46081;-64
2023/01/31 16:19:50;;;;;;;0.50;0.40;;;23.40;41.10;;;;;;4908802;28;45767;-66
2023/01/31 16:22:36;;;;;;;0.70;0.50;;;23.30;41.20;;;;;;4908962;28;45845;-66
2023/01/31 16:25:02;;;;;;;0.40;0.40;;;23.20;41.20;;;;;;4897285;28;45259;-63
2023/01/31 16:27:31;;;;;;;0.32;0.32;;;23.10;41.60;;;;;;4884690;28;45501;-66
2023/01/31 16:29:57;;;;;;;0.43;0.40;;;23.00;41.50;;;;;;4899090;28;45241;-65
2023/01/31 16:32:42;;;;;;;0.70;0.50;;;22.90;41.70;;;;;;4898154;28;45281;-66
2023/01/31 16:35:19;;;;;;;0.90;0.40;;;22.80;41.70;;;;;;4899832;28;45414;-66
2023/01/31 16:37:44;;;;;;;0.60;0.32;;;22.70;41.80;;;;;;4884092;28;45753;-66
2023/01/31 16:40:26;;;;;;;0.57;0.45;;;22.60;41.90;;;;;;4901677;28;44639;-67
2023/01/31 16:43:09;;;;;;;1.65;0.60;;;22.60;42.10;;;;;;4887135;28;45545;-66
2023/01/31 16:45:35;;;;;;;0.60;0.40;;;22.40;42.10;;;;;;4892740;28;44846;-63
2023/01/31 16:48:28;;;;;;;0.30;0.30;;;22.40;42.30;;;;;;4916756;28;46418;-64
2023/01/31 16:50:54;;;;;;;0.75;0.57;;;22.30;42.40;;;;;;4910528;28;45348;-67
2023/01/31 16:53:33;;;;;;;0.80;0.57;;;22.20;42.50;;;;;;4913096;28;45171;-66
2023/01/31 16:56:19;;;;;;;1.15;0.40;;;22.10;42.50;;;;;;4900877;28;44627;-66
2023/01/31 16:58:52;;;;;;;2.03;0.70;;;22.00;42.70;;;;;;4912533;28;45377;-64
2023/01/31 17:01:21;;;;;;;0.73;0.43;;;21.90;42.70;;;;;;4898588;28;45829;-66
2023/01/31 17:03:59;;;;;;;1.63;0.60;;;21.80;42.80;;;;;;4881940;28;45473;-63
2023/01/31 17:06:25;;;;;;;1.00;0.47;;;21.70;43.40;;;;;;4901045;28;45685;-66
2023/01/31 17:08:50;;;;;;;0.90;0.45;;;21.60;43.00;;;;;;4912889;28;46030;-63
2023/01/31 17:11:16;;;;;;;1.08;0.50;;;21.60;43.10;;;;;;4912945;28;44702;-65
2023/01/31 17:13:41;;;;;;;0.98;0.60;;;21.50;43.20;;;;;;4912647;28;44791;-64